sensor_id;sensor_type;location;lat;lon;timestamp;P1;durP1;ratioP1;P2;durP2;ratioP2
2884;SDS011;54691;48.262;11.586;2023-01-05T00:03:48;0.25;;;0.20;;
2884;SDS011;54691;48.262;11.586;2023-01-05T00:10:45;0.60;;;0.30;;
2884;SDS011;54691;48.262;11.586;2023-01-05T00:14:32;0.27;;;0.23;;
2884;SDS011;54691;48.262;11.586;2023-01-05T00:18:19;0.20;;;0.20;;
2884;SDS011;54691;48.262;11.586;2023-01-05T00:25:59;0.57;;;0.28;;
2884;SDS011;54691;48.262;11.586;2023-01-05T00:32:56;0.33;;;0.20;;
2884;SDS011;54691;48.262;11.586;2023-01-05T00:39:56;0.20;;;0.20;;
2884;SDS011;54691;48.262;11.586;2023-01-05T00:46:53;0.30;;;0.30;;
2884;SDS011;54691;48.262;11.586;2023-01-05T00:53:50;2.83;;;0.10;;
2884;SDS011;54691;48.262;11.586;2023-01-05T01:00:46;0.78;;;0.20;;
2884;SDS011;54691;48.262;11.586;2023-01-05T01:07:43;0.33;;;0.20;;
2884;SDS011;54691;48.262;11.586;2023-01-05T01:14:45;0.15;;;0.15;;
2884;SDS011;54691;48.262;11.586;2023-01-05T01:21:41;0.10;;;0.10;;
2884;SDS011;54691;48.262;11.586;2023-01-05T01:28:38;0.28;;;0.28;;
2884;SDS011;54691;48.262;11.586;2023-01-05T01:35:36;1.37;;;0.20;;
2884;SDS011;54691;48.262;11.586;2023-01-05T01:42:33;0.10;;;0.10;;
2884;SDS011;54691;48.262;11.586;2023-01-05T01:49:30;0.10;;;0.10;;
2884;SDS011;54691;48.262;11.586;2023-01-05T01:56:29;1.35;;;0.30;;
2884;SDS011;54691;48.262;11.586;2023-01-05T02:03:31;0.40;;;0.20;;
2884;SDS011;54691;48.262;11.586;2023-01-05T02:10:33;1.47;;;0.20;;
2884;SDS011;54691;48.262;11.586;2023-01-05T02:32:01;2.55;;;0.23;;
2884;SDS011;54691;48.262;11.586;2023-01-05T02:39:00;0.20;;;0.10;;
2884;SDS011;54691;48.262;11.586;2023-01-05T02:45:59;0.10;;;0.10;;
2884;SDS011;54691;48.262;11.586;2023-01-05T02:52:55;0.10;;;0.10;;
2884;SDS011;54691;48.262;11.586;2023-01-05T02:59:53;8.38;;;1.10;;
2884;SDS011;54691;48.262;11.586;2023-01-05T03:06:55;1.75;;;0.68;;
2884;SDS011;54691;48.262;11.586;2023-01-05T03:14:30;0.28;;;0.28;;
2884;SDS011;54691;48.262;11.586;2023-01-05T03:17:54;0.10;;;0.10;;
2884;SDS011;54691;48.262;11.586;2023-01-05T03:24:52;1.65;;;0.20;;
2884;SDS011;54691;48.262;11.586;2023-01-05T03:28:59;0.20;;;0.20;;
2884;SDS011;54691;48.262;11.586;2023-01-05T03:32:31;0.10;;;0.10;;
2884;SDS011;54691;48.262;11.586;2023-01-05T03:36:20;0.10;;;0.10;;
2884;SDS011;54691;48.262;11.586;2023-01-05T03:43:18;0.20;;;0.15;;
2884;SDS011;54691;48.262;11.586;2023-01-05T03:50:16;0.10;;;0.10;;
2884;SDS011;54691;48.262;11.586;2023-01-05T03:57:13;0.20;;;0.20;;
2884;SDS011;54691;48.262;11.586;2023-01-05T04:04:10;0.15;;;0.15;;
2884;SDS011;54691;48.262;11.586;2023-01-05T04:11:16;0.17;;;0.10;;
2884;SDS011;54691;48.262;11.586;2023-01-05T04:18:08;0.10;;;0.10;;
2884;SDS011;54691;48.262;11.586;2023-01-05T04:25:08;0.62;;;0.15;;
2884;SDS011;54691;48.262;11.586;2023-01-05T04:32:05;0.37;;;0.23;;
2884;SDS011;54691;48.262;11.586;2023-01-05T04:39:02;0.28;;;0.15;;
2884;SDS011;54691;48.262;11.586;2023-01-05T04:45:59;0.20;;;0.20;;
2884;SDS011;54691;48.262;11.586;2023-01-05T04:53:00;0.70;;;0.30;;
2884;SDS011;54691;48.262;11.586;2023-01-05T04:59:57;0.30;;;0.30;;
2884;SDS011;54691;48.262;11.586;2023-01-05T05:06:54;1.85;;;0.25;;
2884;SDS011;54691;48.262;11.586;2023-01-05T05:13:51;0.25;;;0.20;;
2884;SDS011;54691;48.262;11.586;2023-01-05T05:20:48;0.20;;;0.20;;
2884;SDS011;54691;48.262;11.586;2023-01-05T05:27:46;0.35;;;0.20;;
2884;SDS011;54691;48.262;11.586;2023-01-05T05:34:44;0.20;;;0.20;;
2884;SDS011;54691;48.262;11.586;2023-01-05T05:41:43;0.40;;;0.40;;
2884;SDS011;54691;48.262;11.586;2023-01-05T05:48:40;3.83;;;0.20;;
2884;SDS011;54691;48.262;11.586;2023-01-05T05:55:38;0.70;;;0.30;;
2884;SDS011;54691;48.262;11.586;2023-01-05T06:02:38;0.47;;;0.15;;
2884;SDS011;54691;48.262;11.586;2023-01-05T06:09:35;0.20;;;0.10;;
2884;SDS011;54691;48.262;11.586;2023-01-05T06:16:34;0.85;;;0.10;;
2884;SDS011;54691;48.262;11.586;2023-01-05T06:23:32;2.83;;;0.40;;
2884;SDS011;54691;48.262;11.586;2023-01-05T06:30:29;1.45;;;0.10;;
2884;SDS011;54691;48.262;11.586;2023-01-05T06:37:26;0.13;;;0.10;;
2884;SDS011;54691;48.262;11.586;2023-01-05T06:44:30;0.33;;;0.25;;
2884;SDS011;54691;48.262;11.586;2023-01-05T06:51:41;0.25;;;0.20;;
2884;SDS011;54691;48.262;11.586;2023-01-05T06:58:38;0.57;;;0.50;;
2884;SDS011;54691;48.262;11.586;2023-01-05T07:05:35;0.47;;;0.10;;
2884;SDS011;54691;48.262;11.586;2023-01-05T07:12:36;0.30;;;0.15;;
2884;SDS011;54691;48.262;11.586;2023-01-05T07:19:34;0.10;;;0.10;;
2884;SDS011;54691;48.262;11.586;2023-01-05T07:26:31;0.47;;;0.23;;
2884;SDS011;54691;48.262;11.586;2023-01-05T07:33:29;0.37;;;0.35;;
2884;SDS011;54691;48.262;11.586;2023-01-05T07:40:27;0.30;;;0.30;;
2884;SDS011;54691;48.262;11.586;2023-01-05T07:47:26;0.50;;;0.50;;
2884;SDS011;54691;48.262;11.586;2023-01-05T07:54:23;0.20;;;0.10;;
2884;SDS011;54691;48.262;11.586;2023-01-05T08:01:21;0.17;;;0.10;;
2884;SDS011;54691;48.262;11.586;2023-01-05T08:08:19;0.50;;;0.20;;
2884;SDS011;54691;48.262;11.586;2023-01-05T08:15:16;0.10;;;0.10;;
2884;SDS011;54691;48.262;11.586;2023-01-05T08:22:13;0.10;;;0.10;;
2884;SDS011;54691;48.262;11.586;2023-01-05T08:29:10;0.13;;;0.10;;
2884;SDS011;54691;48.262;11.586;2023-01-05T08:36:14;0.20;;;0.20;;
2884;SDS011;54691;48.262;11.586;2023-01-05T08:43:06;0.28;;;0.15;;
2884;SDS011;54691;48.262;11.586;2023-01-05T08:50:05;0.60;;;0.20;;
2884;SDS011;54691;48.262;11.586;2023-01-05T08:57:04;0.10;;;0.10;;
2884;SDS011;54691;48.262;11.586;2023-01-05T09:04:01;0.10;;;0.10;;
2884;SDS011;54691;48.262;11.586;2023-01-05T09:11:16;0.10;;;0.10;;
2884;SDS011;54691;48.262;11.586;2023-01-05T09:14:45;2.58;;;0.20;;
2884;SDS011;54691;48.262;11.586;2023-01-05T09:25:18;0.65;;;0.25;;
2884;SDS011;54691;48.262;11.586;2023-01-05T09:35:53;0.33;;;0.33;;
2884;SDS011;54691;48.262;11.586;2023-01-05T09:42:50;0.00;;;0.00;;
2884;SDS011;54691;48.262;11.586;2023-01-05T09:49:48;0.10;;;0.10;;
2884;SDS011;54691;48.262;11.586;2023-01-05T09:56:46;3.52;;;0.40;;
2884;SDS011;54691;48.262;11.586;2023-01-05T10:03:50;0.15;;;0.13;;
2884;SDS011;54691;48.262;11.586;2023-01-05T10:10:46;0.10;;;0.10;;
2884;SDS011;54691;48.262;11.586;2023-01-05T10:17:45;0.28;;;0.28;;
2884;SDS011;54691;48.262;11.586;2023-01-05T10:39:28;0.35;;;0.20;;
2884;SDS011;54691;48.262;11.586;2023-01-05T10:43:05;2.77;;;0.75;;
2884;SDS011;54691;48.262;11.586;2023-01-05T10:49:57;0.78;;;0.28;;
2884;SDS011;54691;48.262;11.586;2023-01-05T10:57:03;0.45;;;0.23;;
2884;SDS011;54691;48.262;11.586;2023-01-05T11:04:00;0.78;;;0.30;;
2884;SDS011;54691;48.262;11.586;2023-01-05T11:10:57;0.20;;;0.20;;
2884;SDS011;54691;48.262;11.586;2023-01-05T11:17:55;0.95;;;0.70;;
2884;SDS011;54691;48.262;11.586;2023-01-05T11:24:53;2.02;;;0.93;;
2884;SDS011;54691;48.262;11.586;2023-01-05T11:32:05;1.17;;;0.60;;
2884;SDS011;54691;48.262;11.586;2023-01-05T11:35:36;1.67;;;0.78;;
2884;SDS011;54691;48.262;11.586;2023-01-05T11:42:34;3.92;;;0.40;;
2884;SDS011;54691;48.262;11.586;2023-01-05T11:49:33;1.07;;;0.47;;
2884;SDS011;54691;48.262;11.586;2023-01-05T11:56:31;1.00;;;0.70;;
2884;SDS011;54691;48.262;11.586;2023-01-05T12:11:17;1.03;;;0.60;;
2884;SDS011;54691;48.262;11.586;2023-01-05T12:22:27;3.55;;;1.20;;
2884;SDS011;54691;48.262;11.586;2023-01-05T12:29:23;2.77;;;1.20;;
2884;SDS011;54691;48.262;11.586;2023-01-05T12:36:24;9.18;;;3.45;;
2884;SDS011;54691;48.262;11.586;2023-01-05T12:57:45;1.12;;;0.90;;
2884;SDS011;54691;48.262;11.586;2023-01-05T13:04:47;0.68;;;0.50;;
2884;SDS011;54691;48.262;11.586;2023-01-05T13:11:46;1.57;;;0.75;;
2884;SDS011;54691;48.262;11.586;2023-01-05T13:18:48;3.33;;;1.05;;
2884;SDS011;54691;48.262;11.586;2023-01-05T13:29:31;4.10;;;1.50;;
2884;SDS011;54691;48.262;11.586;2023-01-05T13:36:52;4.85;;;1.60;;
2884;SDS011;54691;48.262;11.586;2023-01-05T13:47:23;8.60;;;1.25;;
2884;SDS011;54691;48.262;11.586;2023-01-05T13:58:15;12.37;;;1.15;;
2884;SDS011;54691;48.262;11.586;2023-01-05T14:05:06;4.53;;;0.82;;
2884;SDS011;54691;48.262;11.586;2023-01-05T14:19:12;3.83;;;0.82;;
2884;SDS011;54691;48.262;11.586;2023-01-05T14:22:41;1.10;;;0.90;;
2884;SDS011;54691;48.262;11.586;2023-01-05T14:33:21;6.15;;;0.70;;
2884;SDS011;54691;48.262;11.586;2023-01-05T14:40:39;6.30;;;1.90;;
2884;SDS011;54691;48.262;11.586;2023-01-05T14:44:20;5.00;;;0.75;;
2884;SDS011;54691;48.262;11.586;2023-01-05T14:51:15;4.53;;;1.12;;
2884;SDS011;54691;48.262;11.586;2023-01-05T15:01:55;6.67;;;3.37;;
2884;SDS011;54691;48.262;11.586;2023-01-05T15:05:20;3.60;;;1.00;;
2884;SDS011;54691;48.262;11.586;2023-01-05T15:12:44;39.90;;;12.55;;
2884;SDS011;54691;48.262;11.586;2023-01-05T15:19:30;10.10;;;0.78;;
2884;SDS011;54691;48.262;11.586;2023-01-05T15:33:30;39.27;;;7.10;;
2884;SDS011;54691;48.262;11.586;2023-01-05T15:44:12;9.60;;;3.10;;
2884;SDS011;54691;48.262;11.586;2023-01-05T15:54:46;12.65;;;2.75;;
2884;SDS011;54691;48.262;11.586;2023-01-05T16:01:39;11.93;;;2.25;;
2884;SDS011;54691;48.262;11.586;2023-01-05T16:08:40;9.25;;;1.62;;
2884;SDS011;54691;48.262;11.586;2023-01-05T16:19:23;9.75;;;1.50;;
2884;SDS011;54691;48.262;11.586;2023-01-05T16:23:03;18.00;;;1.60;;
2884;SDS011;54691;48.262;11.586;2023-01-05T16:26:34;2.55;;;1.65;;
2884;SDS011;54691;48.262;11.586;2023-01-05T16:30:12;10.50;;;1.40;;
2884;SDS011;54691;48.262;11.586;2023-01-05T16:33:59;14.70;;;2.33;;
2884;SDS011;54691;48.262;11.586;2023-01-05T16:47:52;5.47;;;1.25;;
2884;SDS011;54691;48.262;11.586;2023-01-05T17:05:29;10.85;;;2.00;;
2884;SDS011;54691;48.262;11.586;2023-01-05T17:12:26;6.30;;;1.52;;
2884;SDS011;54691;48.262;11.586;2023-01-05T17:19:23;4.65;;;1.12;;
2884;SDS011;54691;48.262;11.586;2023-01-05T17:26:25;15.15;;;0.85;;
2884;SDS011;54691;48.262;11.586;2023-01-05T17:33:19;8.15;;;1.12;;
2884;SDS011;54691;48.262;11.586;2023-01-05T17:40:17;38.83;;;2.95;;
2884;SDS011;54691;48.262;11.586;2023-01-05T17:47:15;4.87;;;1.10;;
2884;SDS011;54691;48.262;11.586;2023-01-05T17:54:11;16.55;;;2.45;;
2884;SDS011;54691;48.262;11.586;2023-01-05T18:01:09;7.08;;;2.52;;
2884;SDS011;54691;48.262;11.586;2023-01-05T18:08:06;15.65;;;4.22;;
2884;SDS011;54691;48.262;11.586;2023-01-05T18:15:07;25.72;;;7.17;;
2884;SDS011;54691;48.262;11.586;2023-01-05T18:22:05;2.65;;;1.90;;
2884;SDS011;54691;48.262;11.586;2023-01-05T18:29:02;13.98;;;2.83;;
2884;SDS011;54691;48.262;11.586;2023-01-05T18:36:03;6.97;;;1.65;;
2884;SDS011;54691;48.262;11.586;2023-01-05T18:42:57;7.03;;;2.12;;
2884;SDS011;54691;48.262;11.586;2023-01-05T18:49:54;8.90;;;0.93;;
2884;SDS011;54691;48.262;11.586;2023-01-05T18:56:55;7.97;;;1.42;;
2884;SDS011;54691;48.262;11.586;2023-01-05T19:03:52;6.20;;;1.87;;
2884;SDS011;54691;48.262;11.586;2023-01-05T19:10:50;12.43;;;2.17;;
2884;SDS011;54691;48.262;11.586;2023-01-05T19:17:47;9.38;;;2.20;;
2884;SDS011;54691;48.262;11.586;2023-01-05T19:24:45;13.15;;;3.50;;
2884;SDS011;54691;48.262;11.586;2023-01-05T19:31:42;11.15;;;1.87;;
2884;SDS011;54691;48.262;11.586;2023-01-05T19:38:40;10.95;;;2.83;;
2884;SDS011;54691;48.262;11.586;2023-01-05T19:45:37;7.08;;;1.92;;
2884;SDS011;54691;48.262;11.586;2023-01-05T19:52:34;11.22;;;2.77;;
2884;SDS011;54691;48.262;11.586;2023-01-05T19:59:31;9.05;;;3.30;;
2884;SDS011;54691;48.262;11.586;2023-01-05T20:06:29;9.28;;;3.52;;
2884;SDS011;54691;48.262;11.586;2023-01-05T20:13:26;18.48;;;7.10;;
2884;SDS011;54691;48.262;11.586;2023-01-05T20:20:23;21.07;;;4.50;;
2884;SDS011;54691;48.262;11.586;2023-01-05T20:27:20;18.12;;;5.80;;
2884;SDS011;54691;48.262;11.586;2023-01-05T20:34:18;31.07;;;6.90;;
2884;SDS011;54691;48.262;11.586;2023-01-05T20:41:28;30.32;;;6.72;;
2884;SDS011;54691;48.262;11.586;2023-01-05T20:44:59;19.30;;;7.20;;
2884;SDS011;54691;48.262;11.586;2023-01-05T20:52:01;19.27;;;5.72;;
2884;SDS011;54691;48.262;11.586;2023-01-05T20:58:58;15.13;;;5.53;;
2884;SDS011;54691;48.262;11.586;2023-01-05T21:05:55;30.82;;;7.42;;
2884;SDS011;54691;48.262;11.586;2023-01-05T21:12:54;19.82;;;6.53;;
2884;SDS011;54691;48.262;11.586;2023-01-05T21:19:53;20.48;;;5.80;;
2884;SDS011;54691;48.262;11.586;2023-01-05T21:26:51;14.65;;;4.72;;
2884;SDS011;54691;48.262;11.586;2023-01-05T21:33:48;12.98;;;4.45;;
2884;SDS011;54691;48.262;11.586;2023-01-05T21:40:45;14.80;;;4.20;;
2884;SDS011;54691;48.262;11.586;2023-01-05T21:47:42;16.75;;;4.60;;
2884;SDS011;54691;48.262;11.586;2023-01-05T21:54:58;8.73;;;3.40;;
2884;SDS011;54691;48.262;11.586;2023-01-05T21:58:45;24.55;;;6.60;;
2884;SDS011;54691;48.262;11.586;2023-01-05T22:05:42;9.98;;;4.87;;
2884;SDS011;54691;48.262;11.586;2023-01-05T22:12:39;9.80;;;4.78;;
2884;SDS011;54691;48.262;11.586;2023-01-05T22:19:36;7.40;;;3.47;;
2884;SDS011;54691;48.262;11.586;2023-01-05T22:26:33;6.95;;;2.70;;
2884;SDS011;54691;48.262;11.586;2023-01-05T22:33:30;4.25;;;2.40;;
2884;SDS011;54691;48.262;11.586;2023-01-05T22:40:28;5.78;;;2.22;;
2884;SDS011;54691;48.262;11.586;2023-01-05T22:54:56;7.55;;;2.80;;
2884;SDS011;54691;48.262;11.586;2023-01-05T23:01:53;4.83;;;2.02;;
2884;SDS011;54691;48.262;11.586;2023-01-05T23:16:17;3.70;;;1.80;;
2884;SDS011;54691;48.262;11.586;2023-01-05T23:34:36;4.75;;;2.62;;
2884;SDS011;54691;48.262;11.586;2023-01-05T23:41:56;6.45;;;3.08;;
2884;SDS011;54691;48.262;11.586;2023-01-05T23:52:51;5.30;;;2.92;;
